Time;durP1;ratioP1;P1;durP2;ratioP2;P2;SDS_P1;SDS_P2;PMS_P1;PMS_P2;Temp;Humidity;BMP_temperature;BMP_pressure;BME280_temperature;BME280_humidity;BME280_pressure;Samples;Min_cycle;Max_cycle;Signal;HPM_P1;HPM_P2
2022/04/19 00:00:43;;;;;;;3.95;2.38;;;21.40;38.40;;;;;;5137271;27;20079;-61
2022/04/19 00:03:09;;;;;;;4.32;3.05;;;21.40;38.40;;;;;;5138703;27;20045;-60
2022/04/19 00:05:36;;;;;;;3.85;2.40;;;21.30;38.40;;;;;;5140621;27;20007;-60
2022/04/19 00:08:02;;;;;;;3.90;2.83;;;21.30;38.40;;;;;;5138179;27;20015;-60
2022/04/19 00:10:29;;;;;;;5.13;2.63;;;21.30;38.40;;;;;;5138179;27;20022;-60
2022/04/19 00:12:59;;;;;;;4.05;2.80;;;21.40;38.40;;;;;;5121679;27;20027;-61
2022/04/19 00:15:27;;;;;;;3.72;2.78;;;21.30;38.40;;;;;;5119502;27;20030;-61
2022/04/19 00:17:54;;;;;;;4.05;3.03;;;21.30;38.40;;;;;;5140433;27;20023;-61
2022/04/19 00:20:21;;;;;;;3.78;2.83;;;21.30;38.50;;;;;;5141165;27;20031;-61
2022/04/19 00:22:49;;;;;;;4.05;2.83;;;21.30;38.50;;;;;;5138143;27;20020;-61
2022/04/19 00:25:15;;;;;;;4.00;2.50;;;21.30;38.50;;;;;;5137351;27;20080;-60
2022/04/19 00:27:41;;;;;;;3.95;2.78;;;21.30;38.50;;;;;;5136774;27;20033;-60
2022/04/19 00:30:09;;;;;;;3.28;2.67;;;21.30;38.50;;;;;;5136880;27;20094;-61
2022/04/19 00:32:35;;;;;;;4.03;2.65;;;21.30;38.60;;;;;;5137247;27;20030;-60
2022/04/19 00:35:02;;;;;;;3.08;2.38;;;21.30;38.60;;;;;;5137010;27;20023;-60
2022/04/19 00:37:28;;;;;;;3.95;2.50;;;21.30;38.60;;;;;;5137128;27;20019;-60
2022/04/19 00:39:58;;;;;;;5.75;2.67;;;21.30;38.70;;;;;;5137030;27;20154;-60
2022/04/19 00:42:27;;;;;;;4.03;2.70;;;21.30;38.70;;;;;;5136931;27;20026;-61
2022/04/19 00:44:54;;;;;;;3.92;2.58;;;21.30;38.70;;;;;;5119822;27;20022;-60
2022/04/19 00:47:19;;;;;;;4.68;3.13;;;21.30;38.70;;;;;;5137328;27;20018;-60
2022/04/19 00:49:47;;;;;;;3.50;2.72;;;21.30;38.60;;;;;;5135789;27;20359;-60
2022/04/19 00:52:13;;;;;;;3.88;2.60;;;21.30;38.70;;;;;;5117729;27;20029;-60
2022/04/19 00:54:41;;;;;;;4.10;2.92;;;21.30;38.70;;;;;;5137693;27;20469;-60
2022/04/19 00:57:07;;;;;;;4.00;2.95;;;21.30;38.70;;;;;;5138447;27;20011;-60
2022/04/19 00:59:33;;;;;;;4.50;2.90;;;21.30;39.30;;;;;;5119928;27;20053;-60
2022/04/19 01:02:00;;;;;;;4.78;2.60;;;21.30;38.70;;;;;;5137587;27;20027;-60
2022/04/19 01:04:26;;;;;;;3.50;2.70;;;21.30;38.70;;;;;;5135523;27;20084;-60
2022/04/19 01:06:51;;;;;;;4.63;2.78;;;21.30;38.80;;;;;;5135286;27;20389;-60
2022/04/19 01:09:18;;;;;;;4.35;2.63;;;21.30;38.80;;;;;;5137979;27;20007;-62
2022/04/19 01:14:28;;;;;;;5.10;2.90;;;21.30;38.80;;;;;;5136591;27;20030;-61
2022/04/19 01:16:58;;;;;;;3.42;2.65;;;21.30;38.90;;;;;;5136159;27;20153;-62
2022/04/19 01:19:23;;;;;;;5.90;2.60;;;21.30;38.90;;;;;;5136149;27;20026;-63
2022/04/19 01:21:50;;;;;;;3.30;2.45;;;21.30;38.90;;;;;;5135761;27;20110;-62
2022/04/19 01:24:16;;;;;;;3.92;2.65;;;21.30;39.00;;;;;;5135900;27;20039;-61
2022/04/19 01:26:42;;;;;;;5.55;3.08;;;21.20;39.00;;;;;;5136355;27;20019;-61
2022/04/19 01:29:10;;;;;;;3.40;2.92;;;21.20;39.00;;;;;;5137431;27;20011;-63
2022/04/19 01:31:36;;;;;;;3.20;2.90;;;21.20;39.00;;;;;;5137656;27;20015;-63
2022/04/19 01:34:02;;;;;;;5.05;2.90;;;21.20;39.00;;;;;;5101617;27;20026;-62
2022/04/19 01:36:29;;;;;;;3.58;2.90;;;21.20;39.00;;;;;;5135985;27;20076;-63
2022/04/19 01:38:56;;;;;;;3.88;2.67;;;21.20;39.10;;;;;;5136200;27;20076;-63
2022/04/19 01:41:22;;;;;;;3.83;2.60;;;21.20;39.10;;;;;;5135786;27;20023;-63
2022/04/19 01:43:49;;;;;;;4.00;2.80;;;21.20;39.10;;;;;;5137360;27;20685;-63
2022/04/19 01:46:19;;;;;;;3.67;3.00;;;21.20;39.10;;;;;;5120413;27;20039;-62
2022/04/19 01:48:46;;;;;;;5.03;2.80;;;21.20;39.10;;;;;;5136255;27;20022;-63
2022/04/19 01:51:12;;;;;;;3.05;2.42;;;21.20;39.10;;;;;;5134959;27;20018;-62
2022/04/19 01:53:40;;;;;;;5.00;2.90;;;21.20;39.10;;;;;;5134837;27;20019;-62
2022/04/19 01:56:07;;;;;;;4.10;2.90;;;21.20;39.20;;;;;;5116584;28;20043;-62
2022/04/19 01:58:33;;;;;;;5.10;2.67;;;21.10;39.20;;;;;;5135009;27;20027;-63
2022/04/19 02:00:59;;;;;;;4.13;3.15;;;21.10;39.20;;;;;;5134396;27;20102;-63
2022/04/19 02:03:26;;;;;;;4.40;3.30;;;21.10;39.20;;;;;;5135371;28;20064;-61
2022/04/19 02:05:52;;;;;;;3.88;2.90;;;21.10;39.20;;;;;;5117749;28;20007;-61
2022/04/19 02:08:19;;;;;;;3.85;2.88;;;21.20;39.20;;;;;;5135189;28;20016;-60
2022/04/19 02:10:46;;;;;;;4.63;2.60;;;21.10;39.20;;;;;;5136782;28;20130;-60
2022/04/19 02:13:13;;;;;;;5.65;3.00;;;21.10;39.30;;;;;;5136775;28;20076;-61
2022/04/19 02:15:39;;;;;;;4.50;2.42;;;21.10;39.30;;;;;;5117986;28;20043;-61
2022/04/19 02:18:05;;;;;;;3.33;2.80;;;21.10;39.30;;;;;;5136143;28;20084;-61
2022/04/19 02:20:32;;;;;;;5.82;3.28;;;21.10;39.30;;;;;;5118777;28;20019;-62
2022/04/19 02:22:58;;;;;;;9.07;4.00;;;21.10;39.30;;;;;;5119011;28;20460;-61
2022/04/19 02:25:24;;;;;;;4.05;3.55;;;21.10;39.40;;;;;;5135762;28;20069;-61
2022/04/19 02:27:52;;;;;;;4.07;3.30;;;21.10;39.40;;;;;;5136108;28;20007;-61
2022/04/19 02:30:18;;;;;;;5.68;3.40;;;21.10;39.40;;;;;;5116524;28;20065;-62
2022/04/19 02:32:45;;;;;;;7.20;3.20;;;21.10;39.40;;;;;;5099134;28;20027;-62
2022/04/19 02:35:10;;;;;;;4.75;3.60;;;21.00;39.40;;;;;;5134596;28;20015;-61
2022/04/19 02:37:37;;;;;;;3.97;3.08;;;21.00;39.40;;;;;;5135923;28;20358;-62
2022/04/19 02:40:03;;;;;;;4.20;3.33;;;21.00;39.50;;;;;;5135392;27;20047;-61
2022/04/19 02:42:29;;;;;;;3.55;3.20;;;21.10;39.50;;;;;;5137761;27;20022;-62
2022/04/19 02:44:56;;;;;;;4.75;3.38;;;21.00;39.50;;;;;;5121052;27;20016;-62
2022/04/19 02:47:23;;;;;;;3.95;2.92;;;21.00;39.50;;;;;;5122653;27;20023;-62
2022/04/19 02:49:49;;;;;;;5.20;3.40;;;21.00;39.50;;;;;;5142037;27;20019;-62
2022/04/19 02:52:17;;;;;;;5.35;3.45;;;21.00;39.50;;;;;;5142854;27;20027;-63
2022/04/19 02:54:43;;;;;;;4.57;3.20;;;21.00;39.50;;;;;;5140866;27;20091;-61
2022/04/19 02:57:10;;;;;;;4.95;3.03;;;21.00;39.60;;;;;;5139936;27;20019;-62
2022/04/19 02:59:37;;;;;;;5.40;4.05;;;21.00;39.50;;;;;;5140021;27;20030;-62
2022/04/19 03:02:05;;;;;;;5.32;3.17;;;21.00;39.60;;;;;;5140976;27;20031;-62
2022/04/19 03:04:31;;;;;;;4.53;3.60;;;21.00;39.60;;;;;;5140903;27;20007;-62
2022/04/19 03:06:58;;;;;;;4.35;3.55;;;21.00;39.60;;;;;;5139383;27;20019;-62
2022/04/19 03:09:25;;;;;;;5.03;3.50;;;21.00;39.60;;;;;;5120579;27;20162;-62
2022/04/19 03:11:52;;;;;;;6.68;3.30;;;21.00;39.60;;;;;;5138099;27;20114;-62
2022/04/19 03:14:19;;;;;;;5.88;3.70;;;21.00;39.60;;;;;;5138737;27;20078;-62
2022/04/19 03:16:45;;;;;;;4.15;3.10;;;21.00;39.60;;;;;;5137958;27;20106;-62
2022/04/19 03:19:13;;;;;;;4.40;2.70;;;21.00;39.70;;;;;;5119323;27;20054;-62
2022/04/19 03:21:40;;;;;;;7.65;3.60;;;21.00;39.70;;;;;;5138254;27;20086;-62
2022/04/19 03:29:35;;;;;;;7.28;3.20;;;21.00;39.70;;;;;;5138145;27;20083;-62
2022/04/19 03:32:01;;;;;;;5.35;3.38;;;21.00;39.70;;;;;;5137498;27;20015;-62
2022/04/19 03:34:27;;;;;;;6.38;3.40;;;21.00;39.70;;;;;;5118732;27;20546;-65
2022/04/19 03:36:54;;;;;;;5.30;3.10;;;21.00;39.70;;;;;;5137259;27;20420;-61
2022/04/19 03:39:23;;;;;;;4.23;3.60;;;21.00;39.80;;;;;;5137119;27;20095;-62
2022/04/19 03:41:49;;;;;;;3.65;3.15;;;20.90;39.80;;;;;;5118180;27;20464;-62
2022/04/19 03:44:16;;;;;;;4.68;3.63;;;20.90;39.70;;;;;;5137050;27;20011;-62
2022/04/19 03:49:27;;;;;;;3.08;2.78;;;20.90;39.80;;;;;;5121647;27;20030;-62
2022/04/19 03:51:52;;;;;;;5.05;3.17;;;20.90;39.80;;;;;;5117436;27;20019;-62
2022/04/19 03:54:18;;;;;;;5.00;3.45;;;20.90;39.80;;;;;;5117740;27;20111;-62
2022/04/19 03:56:45;;;;;;;3.70;3.00;;;20.90;39.80;;;;;;5136283;27;20019;-62
2022/04/19 03:59:11;;;;;;;6.50;3.60;;;20.90;39.80;;;;;;5117775;27;20076;-62
2022/04/19 04:01:39;;;;;;;3.63;3.15;;;20.90;39.80;;;;;;5136092;27;20595;-62
2022/04/19 04:04:07;;;;;;;4.10;3.40;;;20.90;39.90;;;;;;5136140;27;20012;-62
2022/04/19 04:06:36;;;;;;;2.90;2.40;;;20.90;39.80;;;;;;5137854;27;20064;-62
2022/04/19 04:09:03;;;;;;;4.50;2.65;;;20.90;39.80;;;;;;5137963;27;20022;-62
2022/04/19 04:11:29;;;;;;;5.45;3.40;;;20.90;39.90;;;;;;5137006;27;20011;-62
2022/04/19 04:13:55;;;;;;;3.70;3.17;;;20.90;39.90;;;;;;5136900;27;20026;-61
2022/04/19 04:16:22;;;;;;;4.65;3.30;;;20.90;40.00;;;;;;5136141;27;20039;-62
2022/04/19 04:18:49;;;;;;;3.67;3.10;;;20.90;40.50;;;;;;5136149;27;20031;-61
2022/04/19 04:21:14;;;;;;;3.00;2.72;;;20.90;39.90;;;;;;5118048;27;20059;-61
2022/04/19 04:23:41;;;;;;;3.97;2.90;;;20.90;40.00;;;;;;5137211;27;20041;-61
2022/04/19 04:26:07;;;;;;;3.88;3.35;;;20.90;40.00;;;;;;5136359;27;20015;-61
2022/04/19 04:28:33;;;;;;;3.85;2.97;;;20.80;40.00;;;;;;5117333;27;20473;-62
2022/04/19 04:30:59;;;;;;;4.15;3.10;;;20.80;40.00;;;;;;5117522;27;20420;-62
2022/04/19 04:33:25;;;;;;;5.03;3.60;;;20.90;40.00;;;;;;5117126;27;20151;-62
2022/04/19 04:35:51;;;;;;;4.13;3.30;;;20.80;40.00;;;;;;5135237;27;20019;-61
2022/04/19 04:38:17;;;;;;;4.82;3.30;;;20.90;40.00;;;;;;5135493;27;20102;-63
2022/04/19 04:40:42;;;;;;;7.13;3.83;;;20.90;40.00;;;;;;5101242;27;20030;-64
2022/04/19 04:43:09;;;;;;;5.43;3.50;;;20.80;40.00;;;;;;5118079;27;20019;-62
2022/04/19 04:45:35;;;;;;;3.95;3.00;;;20.90;40.10;;;;;;5117810;27;20035;-62
2022/04/19 04:50:45;;;;;;;4.72;3.15;;;20.80;40.10;;;;;;5120001;27;20073;-61
2022/04/19 04:53:12;;;;;;;3.28;2.97;;;20.80;40.10;;;;;;5116614;27;20492;-62
2022/04/19 04:55:39;;;;;;;6.40;3.50;;;20.80;40.10;;;;;;5136022;27;20011;-62
2022/04/19 04:58:06;;;;;;;5.15;3.33;;;20.80;40.10;;;;;;5137565;27;20389;-62
2022/04/19 05:00:32;;;;;;;4.38;3.22;;;20.80;40.10;;;;;;5138388;27;20026;-62
2022/04/19 05:02:58;;;;;;;4.53;3.67;;;20.80;40.20;;;;;;5137644;27;20012;-62
2022/04/19 05:05:25;;;;;;;6.15;3.50;;;20.80;40.20;;;;;;5137394;27;20462;-62
2022/04/19 05:07:51;;;;;;;5.28;3.40;;;20.80;40.20;;;;;;5137331;27;20022;-62
2022/04/19 05:10:17;;;;;;;6.50;3.90;;;20.80;40.30;;;;;;5118240;27;20102;-62
2022/04/19 05:12:42;;;;;;;8.15;4.40;;;20.80;40.30;;;;;;5099247;27;20110;-62
2022/04/19 05:15:08;;;;;;;10.52;6.95;;;20.80;40.30;;;;;;5099246;27;20037;-61
2022/04/19 05:17:34;;;;;;;6.70;5.32;;;20.70;41.00;;;;;;5135804;27;20058;-61
2022/04/19 05:20:00;;;;;;;12.60;8.15;;;20.60;40.70;;;;;;5137199;27;20007;-60
2022/04/19 05:22:26;;;;;;;16.02;8.10;;;20.60;41.00;;;;;;5136438;27;20015;-61
2022/04/19 05:24:52;;;;;;;10.13;7.60;;;20.60;41.00;;;;;;5134769;27;20081;-60
2022/04/19 05:27:18;;;;;;;12.27;8.30;;;20.60;41.00;;;;;;5116299;27;20031;-61
2022/04/19 05:29:44;;;;;;;12.65;8.13;;;20.60;40.90;;;;;;5116206;27;20015;-61
2022/04/19 05:32:09;;;;;;;11.38;9.55;;;20.60;40.90;;;;;;5116791;27;20477;-61
2022/04/19 05:34:38;;;;;;;13.43;9.60;;;20.50;41.00;;;;;;5117449;27;20092;-61
2022/04/19 05:37:04;;;;;;;11.57;10.00;;;20.50;41.20;;;;;;5135644;27;20019;-61
2022/04/19 05:39:29;;;;;;;13.95;10.20;;;20.50;41.10;;;;;;5117576;27;20209;-60
2022/04/19 05:41:55;;;;;;;13.70;9.07;;;20.50;41.10;;;;;;5117156;27;20034;-61
2022/04/19 05:44:21;;;;;;;10.93;8.80;;;20.50;41.10;;;;;;5099469;27;20042;-61
2022/04/19 05:46:47;;;;;;;12.40;8.68;;;20.60;41.00;;;;;;5134455;27;20039;-61
2022/04/19 05:49:13;;;;;;;14.25;9.63;;;20.60;40.90;;;;;;5134680;27;20068;-51
2022/04/19 05:51:42;;;;;;;18.05;9.20;;;20.70;40.70;;;;;;5116610;28;20385;-54
2022/04/19 05:54:07;;;;;;;10.57;8.07;;;20.80;40.70;;;;;;5134444;27;20019;-59
2022/04/19 05:56:33;;;;;;;13.95;8.55;;;20.80;40.60;;;;;;5133970;27;20029;-59
2022/04/19 05:59:00;;;;;;;10.50;9.40;;;20.80;40.60;;;;;;5133657;27;20018;-59
2022/04/19 06:04:51;;;;;;;11.90;8.73;;;20.90;40.50;;;;;;5114830;27;20035;-59
2022/04/19 06:06:56;;;;;;;13.02;9.02;;;21.10;40.30;;;;;;5132799;28;20161;-59
2022/04/19 06:09:22;;;;;;;11.95;9.32;;;21.10;40.10;;;;;;5133640;28;20047;-60
2022/04/19 06:11:47;;;;;;;12.45;8.90;;;21.20;40.00;;;;;;5133938;28;20023;-59
2022/04/19 06:14:15;;;;;;;20.20;10.45;;;21.30;40.00;;;;;;5134333;27;20034;-60
2022/04/19 06:16:41;;;;;;;12.73;9.35;;;21.30;39.90;;;;;;5119612;27;20036;-60
2022/04/19 06:19:09;;;;;;;18.13;10.05;;;21.30;39.80;;;;;;5119516;27;20003;-62
2022/04/19 06:21:35;;;;;;;16.77;10.88;;;21.40;39.80;;;;;;5137457;27;20031;-60
2022/04/19 06:24:06;;;;;;;23.13;10.85;;;21.40;39.80;;;;;;5100916;27;20035;-60
2022/04/19 06:26:33;;;;;;;21.33;11.15;;;21.40;39.70;;;;;;5118572;27;20030;-59
2022/04/19 06:29:01;;;;;;;23.02;11.85;;;21.50;39.70;;;;;;5118805;27;20022;-60
2022/04/19 06:31:29;;;;;;;17.65;10.70;;;21.60;39.60;;;;;;5136296;27;20042;-60
2022/04/19 06:33:55;;;;;;;17.02;10.88;;;21.60;39.50;;;;;;5118660;27;20097;-60
2022/04/19 06:36:21;;;;;;;16.70;10.48;;;21.70;39.50;;;;;;5137536;27;20393;-60
2022/04/19 06:38:48;;;;;;;17.33;10.27;;;21.70;39.50;;;;;;5119349;27;20102;-59
2022/04/19 06:41:15;;;;;;;15.07;9.40;;;21.70;39.50;;;;;;5119066;27;20038;-59
2022/04/19 06:43:41;;;;;;;19.88;10.50;;;21.70;39.40;;;;;;5136898;27;20011;-59
2022/04/19 06:46:08;;;;;;;15.00;9.40;;;21.70;39.40;;;;;;5119112;27;20023;-59
2022/04/19 06:48:34;;;;;;;19.73;9.85;;;21.80;39.50;;;;;;5101519;27;20011;-59
2022/04/19 06:51:01;;;;;;;17.60;10.60;;;21.80;39.40;;;;;;5117184;27;20122;-60
2022/04/19 06:53:30;;;;;;;15.68;10.02;;;21.80;39.40;;;;;;5101027;27;20053;-61
2022/04/19 06:55:59;;;;;;;18.60;9.95;;;21.80;39.30;;;;;;5099581;27;20414;-60
2022/04/19 06:58:26;;;;;;;18.17;9.25;;;21.90;39.40;;;;;;5117357;27;20080;-62
2022/04/19 07:00:51;;;;;;;23.70;10.35;;;21.80;39.30;;;;;;5117170;27;20030;-60
2022/04/19 07:03:19;;;;;;;15.90;8.70;;;21.90;39.30;;;;;;5116728;27;20019;-61
2022/04/19 07:05:52;;;;;;;13.65;8.40;;;21.90;39.30;;;;;;5116159;27;20067;-60
2022/04/19 07:08:20;;;;;;;15.38;9.30;;;22.00;39.20;;;;;;5135816;27;20167;-60
2022/04/19 07:10:45;;;;;;;12.15;8.70;;;22.00;39.00;;;;;;5116861;27;20023;-59
2022/04/19 07:13:13;;;;;;;16.05;8.57;;;22.00;39.00;;;;;;5135670;27;20023;-59
2022/04/19 07:15:39;;;;;;;12.23;8.15;;;22.00;38.90;;;;;;5117652;27;20050;-60
2022/04/19 07:18:05;;;;;;;21.95;9.80;;;22.10;39.80;;;;;;5118772;27;20031;-58
2022/04/19 07:28:48;;;;;;;21.75;11.23;;;22.60;41.30;;;;;;5106153;27;20026;-58
2022/04/19 07:31:14;;;;;;;23.15;10.88;;;22.70;41.50;;;;;;5117394;27;20019;-58
2022/04/19 07:33:40;;;;;;;27.27;10.50;;;22.90;41.70;;;;;;5117768;27;20034;-57
2022/04/19 07:36:07;;;;;;;26.25;11.05;;;23.10;41.80;;;;;;5135181;27;20436;-58
2022/04/19 07:38:33;;;;;;;21.17;10.98;;;23.20;42.00;;;;;;5135952;27;20046;-59
2022/04/19 07:41:00;;;;;;;27.27;10.43;;;23.20;42.00;;;;;;5099546;27;20063;-58
2022/04/19 07:43:26;;;;;;;20.02;10.45;;;23.30;42.40;;;;;;5117069;27;20473;-59
2022/04/19 07:45:53;;;;;;;21.35;10.27;;;23.40;42.50;;;;;;5135843;27;20033;-59
2022/04/19 07:48:20;;;;;;;16.50;9.77;;;23.50;42.70;;;;;;5100143;27;20015;-59
2022/04/19 07:50:46;;;;;;;18.83;9.70;;;23.50;42.60;;;;;;5136072;27;20045;-59
2022/04/19 07:53:12;;;;;;;22.52;9.18;;;23.60;43.10;;;;;;5135827;27;20509;-58
2022/04/19 07:55:40;;;;;;;22.48;9.55;;;23.60;43.30;;;;;;5117045;27;20020;-59
2022/04/19 07:58:06;;;;;;;23.80;9.43;;;23.60;43.30;;;;;;5134999;27;20042;-59
2022/04/19 08:00:33;;;;;;;17.75;8.88;;;23.70;43.90;;;;;;5135205;27;20410;-59
2022/04/19 08:02:58;;;;;;;21.95;8.50;;;23.70;43.30;;;;;;5134903;27;20011;-60
2022/04/19 08:05:24;;;;;;;26.60;10.23;;;23.80;43.50;;;;;;5135564;27;20026;-60
2022/04/19 08:07:51;;;;;;;27.88;11.27;;;23.80;42.50;;;;;;5136129;27;20011;-59
2022/04/19 08:10:17;;;;;;;34.67;11.80;;;23.60;41.90;;;;;;5117052;27;20496;-59
2022/04/19 08:12:43;;;;;;;26.92;11.75;;;23.30;41.80;;;;;;5135099;27;20022;-60
2022/04/19 08:15:10;;;;;;;27.58;11.48;;;23.20;41.20;;;;;;5134488;27;20071;-59
2022/04/19 08:17:37;;;;;;;27.20;13.45;;;23.00;40.90;;;;;;5116093;27;20436;-59
2022/04/19 08:20:05;;;;;;;32.92;13.43;;;23.00;39.40;;;;;;5098033;27;20038;-59
2022/04/19 08:22:31;;;;;;;44.90;13.52;;;23.10;39.80;;;;;;5115120;27;20027;-60
2022/04/19 08:24:57;;;;;;;36.85;13.23;;;23.20;40.30;;;;;;5133398;27;20042;-60
2022/04/19 08:27:28;;;;;;;26.15;11.77;;;23.40;40.10;;;;;;5115468;27;20007;-60
2022/04/19 08:29:55;;;;;;;37.85;11.88;;;23.50;40.20;;;;;;5115447;27;20038;-60
2022/04/19 08:32:21;;;;;;;28.98;11.63;;;23.60;40.50;;;;;;5134112;27;20053;-58
2022/04/19 08:34:47;;;;;;;27.35;11.07;;;23.60;40.40;;;;;;5134361;27;20107;-59
2022/04/19 08:37:13;;;;;;;31.60;11.77;;;23.70;40.90;;;;;;5133928;27;20103;-60
2022/04/19 08:39:39;;;;;;;21.63;10.00;;;23.80;41.00;;;;;;5133535;27;20015;-60
2022/04/19 08:42:06;;;;;;;23.17;10.43;;;23.80;40.70;;;;;;5134066;27;20031;-60
2022/04/19 08:44:35;;;;;;;22.48;11.73;;;23.90;41.70;;;;;;5134132;27;20480;-60
2022/04/19 08:47:04;;;;;;;23.63;11.90;;;24.00;41.30;;;;;;5115737;27;20027;-60
2022/04/19 08:49:30;;;;;;;25.88;11.77;;;24.00;40.50;;;;;;5116224;27;20019;-59
2022/04/19 08:51:57;;;;;;;23.23;11.25;;;24.10;40.70;;;;;;5134085;27;20469;-59
2022/04/19 08:59:54;;;;;;;17.92;12.93;;;24.10;41.30;;;;;;5118346;27;20092;-59
2022/04/19 09:02:24;;;;;;;22.50;13.93;;;24.00;40.30;;;;;;5115738;27;20015;-58
2022/04/19 09:04:50;;;;;;;27.40;13.40;;;24.10;41.20;;;;;;5115765;27;20170;-58
2022/04/19 09:07:17;;;;;;;29.80;14.57;;;24.10;40.90;;;;;;5133415;27;20252;-59
2022/04/19 09:09:43;;;;;;;47.08;15.77;;;24.10;40.90;;;;;;5098082;27;20128;-61
2022/04/19 09:12:10;;;;;;;42.17;14.02;;;24.00;39.50;;;;;;5114765;27;20019;-60
2022/04/19 09:14:37;;;;;;;50.92;15.15;;;24.10;39.30;;;;;;5133634;27;20354;-60
2022/04/19 09:17:05;;;;;;;36.72;12.90;;;24.00;40.30;;;;;;5133630;27;20027;-58
2022/04/19 09:19:30;;;;;;;41.63;12.38;;;24.20;40.90;;;;;;5133511;27;20115;-59
2022/04/19 09:21:58;;;;;;;31.70;11.85;;;24.30;41.00;;;;;;5132885;27;20126;-58
2022/04/19 09:24:25;;;;;;;35.53;11.48;;;24.50;41.50;;;;;;5111134;28;20092;-58
2022/04/19 09:26:51;;;;;;;33.72;10.18;;;24.60;41.50;;;;;;5113335;28;20437;-58
2022/04/19 09:29:24;;;;;;;42.13;10.95;;;24.60;41.50;;;;;;5112962;28;20094;-63
2022/04/19 09:31:55;;;;;;;30.95;10.02;;;24.80;42.00;;;;;;5114019;28;20045;-62
2022/04/19 09:34:28;;;;;;;31.15;10.13;;;24.80;42.00;;;;;;5112969;28;20016;-61
2022/04/19 09:37:06;;;;;;;26.45;8.93;;;24.90;42.60;;;;;;5112954;28;20004;-63
2022/04/19 09:39:34;;;;;;;25.58;8.93;;;25.00;42.50;;;;;;5113125;28;20043;-62
2022/04/19 09:42:11;;;;;;;28.20;8.75;;;25.00;43.80;;;;;;5112850;28;20107;-62
2022/04/19 09:44:52;;;;;;;51.00;10.02;;;25.00;43.00;;;;;;5111724;28;20095;-61
2022/04/19 09:47:18;;;;;;;;;;;25.00;43.60;;;;;;5112741;28;20008;-62
2022/04/19 09:49:45;;;;;;;36.38;8.70;;;25.10;43.50;;;;;;5111368;28;19907;-61
2022/04/19 09:52:23;;;;;;;32.13;9.15;;;25.10;43.90;;;;;;5112884;28;20090;-62
2022/04/19 09:55:05;;;;;;;24.65;7.43;;;25.10;44.80;;;;;;5112460;28;20037;-62
2022/04/19 09:57:31;;;;;;;44.65;8.88;;;25.10;44.40;;;;;;5112587;28;20019;-63
2022/04/19 09:59:59;;;;;;;34.72;9.65;;;25.20;45.00;;;;;;5113349;28;20024;-63
2022/04/19 10:08:18;;;;;;;37.10;9.05;;;24.60;41.80;;;;;;5112897;28;20030;-62
2022/04/19 10:10:45;;;;;;;30.52;9.50;;;24.60;41.50;;;;;;5112087;28;20470;-62
2022/04/19 10:13:12;;;;;;;29.88;8.75;;;24.60;41.60;;;;;;5113264;28;20020;-63
2022/04/19 10:15:39;;;;;;;30.77;8.02;;;24.70;41.60;;;;;;5111893;28;20030;-62
2022/04/19 10:18:06;;;;;;;29.15;9.25;;;24.60;42.50;;;;;;5112583;28;20565;-63
2022/04/19 10:20:33;;;;;;;29.25;8.18;;;24.60;42.10;;;;;;5112925;28;20028;-63
2022/04/19 10:23:03;;;;;;;41.40;7.40;;;24.60;41.40;;;;;;5113130;28;20023;-62
2022/04/19 10:25:40;;;;;;;28.85;7.35;;;24.60;41.90;;;;;;5136801;28;20031;-62
2022/04/19 10:28:08;;;;;;;24.13;7.45;;;24.60;42.10;;;;;;5100417;28;20018;-63
2022/04/19 10:30:35;;;;;;;38.20;6.90;;;24.60;41.60;;;;;;5134424;28;20035;-62
2022/04/19 10:33:01;;;;;;;33.00;6.75;;;24.60;41.40;;;;;;5133845;28;20043;-61
2022/04/19 10:35:27;;;;;;;25.67;6.90;;;24.60;41.10;;;;;;5115300;28;20057;-61
2022/04/19 10:38:21;;;;;;;17.75;5.78;;;24.80;41.20;;;;;;5115269;28;20027;-62
2022/04/19 10:40:53;;;;;;;22.60;5.40;;;24.90;41.20;;;;;;5133964;28;20480;-61
2022/04/19 10:43:20;;;;;;;13.25;4.97;;;25.00;41.20;;;;;;5098860;28;20023;-61
2022/04/19 10:45:47;;;;;;;30.67;5.82;;;25.00;41.30;;;;;;5132414;28;20087;-61
2022/04/19 10:48:14;;;;;;;26.48;8.07;;;24.90;40.70;;;;;;5097279;28;20030;-60
2022/04/19 10:50:45;;;;;;;19.27;7.55;;;24.30;36.70;;;;;;5114696;28;20011;-62
2022/04/19 10:53:12;;;;;;;27.35;8.70;;;23.70;35.30;;;;;;5115921;28;20164;-62
2022/04/19 10:55:57;;;;;;;17.55;7.65;;;23.70;34.10;;;;;;5133117;28;20030;-61
2022/04/19 10:58:38;;;;;;;10.13;6.32;;;23.50;32.10;;;;;;5133534;28;20023;-58
2022/04/19 11:01:05;;;;;;;9.60;5.72;;;23.30;31.10;;;;;;5133385;27;20034;-59
2022/04/19 11:03:37;;;;;;;9.75;6.10;;;23.30;30.10;;;;;;5136379;27;20003;-58
2022/04/19 11:06:09;;;;;;;14.95;5.80;;;23.50;30.90;;;;;;5136741;27;20012;-58
2022/04/19 11:08:36;;;;;;;11.13;5.50;;;23.70;31.30;;;;;;5136559;27;20007;-58
2022/04/19 11:11:04;;;;;;;10.00;5.28;;;23.80;30.40;;;;;;5136657;27;20063;-59
2022/04/19 11:13:31;;;;;;;8.98;5.28;;;23.90;30.20;;;;;;5136851;27;20098;-58
2022/04/19 11:16:00;;;;;;;13.35;4.57;;;24.00;30.40;;;;;;5136932;27;20095;-57
2022/04/19 11:18:27;;;;;;;7.35;5.53;;;24.10;30.00;;;;;;5136802;27;20495;-58
2022/04/19 11:20:56;;;;;;;8.50;5.25;;;24.10;29.70;;;;;;5136332;27;20023;-58
2022/04/19 11:23:24;;;;;;;10.55;6.28;;;24.00;28.90;;;;;;5136841;27;20039;-59
2022/04/19 11:25:52;;;;;;;9.32;5.20;;;24.10;28.80;;;;;;5136840;27;20007;-57
2022/04/19 11:28:25;;;;;;;8.65;5.35;;;24.00;28.80;;;;;;5118478;27;20087;-59
2022/04/19 11:30:50;;;;;;;12.07;5.80;;;23.90;28.40;;;;;;5136930;27;20018;-59
2022/04/19 11:33:25;;;;;;;8.77;5.25;;;23.90;28.30;;;;;;5136424;27;20094;-60
2022/04/19 11:36:18;;;;;;;10.57;5.00;;;23.80;27.80;;;;;;5136042;27;20098;-59
2022/04/19 11:38:48;;;;;;;14.55;4.90;;;23.80;27.60;;;;;;5135699;27;20076;-59
2022/04/19 11:46:44;;;;;;;8.57;4.45;;;23.80;27.70;;;;;;5135858;27;20025;-58
2022/04/19 11:49:34;;;;;;;16.30;4.53;;;23.90;27.80;;;;;;5134830;27;20541;-58
2022/04/19 11:52:02;;;;;;;14.05;4.05;;;24.00;28.40;;;;;;5116701;27;20042;-59
2022/04/19 11:54:32;;;;;;;17.27;4.00;;;24.10;28.90;;;;;;5099715;27;20091;-58
2022/04/19 11:57:06;;;;;;;7.50;3.80;;;24.20;28.40;;;;;;5134815;27;20015;-58
2022/04/19 11:59:39;;;;;;;9.02;3.45;;;24.20;28.20;;;;;;5134748;27;20022;-58
2022/04/19 12:02:17;;;;;;;11.27;3.92;;;24.30;28.70;;;;;;5116386;27;20023;-58
2022/04/19 12:04:49;;;;;;;9.10;3.92;;;24.30;28.60;;;;;;5134661;27;20019;-58
2022/04/19 12:07:16;;;;;;;5.55;4.28;;;24.20;28.40;;;;;;5135139;27;20015;-58
2022/04/19 12:09:43;;;;;;;10.07;4.05;;;24.10;27.60;;;;;;5116902;27;20003;-58
2022/04/19 12:12:10;;;;;;;5.75;4.28;;;24.10;27.70;;;;;;5099117;27;20026;-59
2022/04/19 12:14:36;;;;;;;8.65;3.88;;;24.20;28.10;;;;;;5099428;27;20022;-58
2022/04/19 12:17:06;;;;;;;8.05;3.95;;;24.30;28.40;;;;;;5135184;27;20011;-58
2022/04/19 12:19:39;;;;;;;9.07;3.85;;;24.50;28.60;;;;;;5135227;27;20011;-62
2022/04/19 12:22:14;;;;;;;13.05;4.00;;;24.50;29.10;;;;;;5135295;27;20031;-58
2022/04/19 12:24:55;;;;;;;8.75;3.75;;;24.60;29.00;;;;;;5135326;27;20051;-59
2022/04/19 12:27:39;;;;;;;9.70;3.40;;;24.60;29.10;;;;;;5134915;27;20030;-60
2022/04/19 12:30:12;;;;;;;14.05;4.20;;;24.80;29.10;;;;;;5115638;27;20267;-59
2022/04/19 12:32:52;;;;;;;14.55;5.50;;;24.50;28.80;;;;;;5134838;27;20008;-61
2022/04/19 12:35:22;;;;;;;23.10;5.97;;;24.20;28.30;;;;;;5116976;27;20015;-60
2022/04/19 12:38:10;;;;;;;6.63;4.28;;;24.20;29.00;;;;;;5135662;27;20395;-60
2022/04/19 12:40:41;;;;;;;16.33;5.03;;;24.30;29.40;;;;;;5134372;27;20026;-60
2022/04/19 12:43:14;;;;;;;12.20;4.65;;;24.30;29.40;;;;;;5135242;27;20025;-60
2022/04/19 12:45:41;;;;;;;10.85;5.25;;;24.20;29.20;;;;;;5134951;27;20008;-60
2022/04/19 12:48:16;;;;;;;8.85;4.60;;;24.00;28.90;;;;;;5116461;27;20011;-59
2022/04/19 12:50:42;;;;;;;13.45;5.00;;;24.00;28.80;;;;;;5118026;27;20045;-59
2022/04/19 12:53:21;;;;;;;8.60;4.55;;;24.00;28.90;;;;;;5082324;27;20377;-59
2022/04/19 12:55:47;;;;;;;9.98;4.63;;;24.00;28.70;;;;;;5134269;27;20023;-59
2022/04/19 12:58:13;;;;;;;8.38;4.95;;;24.00;28.50;;;;;;5116038;27;20023;-59
2022/04/19 13:00:39;;;;;;;9.35;5.15;;;24.00;27.80;;;;;;5134059;27;20110;-60
2022/04/19 13:03:05;;;;;;;10.20;4.82;;;23.80;27.80;;;;;;5134595;27;20035;-60
2022/04/19 13:13:44;;;;;;;10.30;4.47;;;23.70;28.90;;;;;;5134821;27;20063;-59
2022/04/19 13:16:10;;;;;;;8.95;4.72;;;23.70;28.40;;;;;;5115215;27;20035;-60
2022/04/19 13:18:36;;;;;;;14.40;4.32;;;23.70;28.10;;;;;;5134053;27;20461;-59
2022/04/19 13:21:02;;;;;;;14.27;5.05;;;23.80;28.00;;;;;;5082174;27;20034;-59
2022/04/19 13:23:28;;;;;;;12.00;4.00;;;23.70;28.10;;;;;;5116771;27;20165;-59
2022/04/19 13:25:55;;;;;;;11.43;4.30;;;23.70;28.40;;;;;;5099829;27;20011;-59
2022/04/19 13:28:25;;;;;;;8.85;3.33;;;23.70;28.50;;;;;;5117003;27;20003;-59
2022/04/19 13:30:52;;;;;;;8.43;3.50;;;23.60;28.60;;;;;;5135574;27;20058;-59
2022/04/19 13:33:17;;;;;;;11.50;3.75;;;23.70;28.80;;;;;;5117255;27;20023;-59